Terminal Aerodrome Forecast
Issued by NWS

Home | Current Version | Previous Version | Text Only | Print | Product List | Glossary On
Versions: 1 2 3 4 5 6 7 8 9 10 11 12 13 14 15 16
000
FTUS43 KSGF 251217 AAA
TAFJLN
TAF AMD
KJLN 251217Z 2512/2612 33010KT P6SM VCTS SCT030 BKN060CB
      TEMPO 2512/2516 4SM -TSRA OVC025CB
     FM251900 05007KT P6SM BKN200
     FM260800 VRB03KT P6SM SCT200=

USA.gov is the U.S. government's official web portal to all federal, state and local government web resources and services.